PTYA

Details ICAO PTYA (YAP)
Name Yap Intl
Region Federated States of Micronesia, Palau
Timezone Pacific/Chuuk (UTC+10.0)
Plans Departing 3
Arriving 5
Stats Elevation 91 ft / 28 m (AMSL)
Location 9.498911° 138.082496°
Runways 1
Magnetic Variation 0.301° E
Sunrise 2017-12-14 20:56:51 UTC / 2017-12-15 06:56:51 Local
Sunset 2017-12-15 08:31:14 UTC / 2017-12-15 18:31:14 Local
Advertisement - Login to hide

Runways

ID Width Length Bearing (true) Bearing (mag) Surface Threshold Offset Overrun Length
07 151 ft / 46 m 5,997 ft / 1,828 m 71.55° 71.25° Asphalt 0 ft / 0 m 200 ft / 61 m
25 151 ft / 46 m 5,997 ft / 1,828 m 251.56° 251.26° Asphalt 0 ft / 0 m 200 ft / 61 m

Map

Weather


0- 5 10 15 20 25 30 35+ Temperature / ° C

Clouds and Precipitation
Forecast for 2017-12-15 00:00 UTC. Updated an hour ago

Ground ~20,000 ft ~40,000 ft Winds

METAR

PTYA 142351Z VRB02KT 12SM FEW018 SCT300 30/26 A2982 RMK SLP098 8/101 T02980255 10298 20247 51019

TAF

TAF PTYA 142327Z 1500/1524 VRB07KT P6SM VCSH SCT018 SCT030 TEMPO 1502/1506 26012G22KT 4SM SHRA SCT015 OVC030

Frequencies

Unicom 123.60 MHz Yap Radio
Warning: Do not use this data for real-world aviation or navigation. No guarantee of current accuracy is given.